Time;durP1;ratioP1;P1;durP2;ratioP2;P2;SDS_P1;SDS_P2;PMS_P1;PMS_P2;Temp;Humidity;BMP_temperature;BMP_pressure;BME280_temperature;BME280_humidity;BME280_pressure;Samples;Min_cycle;Max_cycle;Signal;HPM_P1;HPM_P2
2021/11/22 00:01:28;;;;;;;17.00;11.70;;;9.80;94.00;;;;;;5038096;28;20037;-60
2021/11/22 00:03:54;;;;;;;17.27;12.00;;;9.70;93.20;;;;;;5044055;28;20043;-61
2021/11/22 00:06:19;;;;;;;17.45;11.75;;;9.70;93.80;;;;;;5043490;28;20021;-60
2021/11/22 00:08:45;;;;;;;18.73;11.30;;;9.70;94.40;;;;;;5047669;28;20029;-61
2021/11/22 00:11:11;;;;;;;16.35;9.85;;;9.70;94.10;;;;;;5052481;28;20084;-60
2021/11/22 00:13:40;;;;;;;16.33;10.57;;;9.70;94.10;;;;;;5052059;28;20106;-60
2021/11/22 00:16:06;;;;;;;14.13;9.80;;;9.70;93.80;;;;;;5045194;28;20025;-60
2021/11/22 00:18:31;;;;;;;17.20;10.40;;;9.80;94.00;;;;;;5038493;28;20029;-60
2021/11/22 00:20:57;;;;;;;12.90;9.52;;;9.80;93.80;;;;;;5055995;28;20490;-60
2021/11/22 00:23:23;;;;;;;13.00;9.45;;;9.70;93.80;;;;;;5047315;28;20108;-60
2021/11/22 00:25:48;;;;;;;15.13;9.25;;;9.70;94.00;;;;;;5051239;28;20033;-60
2021/11/22 00:28:14;;;;;;;13.38;9.43;;;9.80;93.90;;;;;;5041583;28;20076;-60
2021/11/22 00:30:40;;;;;;;13.18;9.15;;;9.60;93.40;;;;;;5040054;28;20120;-60
2021/11/22 00:33:08;;;;;;;14.77;9.70;;;9.60;93.80;;;;;;5055801;28;20044;-60
2021/11/22 00:35:34;;;;;;;12.85;8.68;;;9.70;94.50;;;;;;5060454;28;20417;-60
2021/11/22 00:38:03;;;;;;;12.75;9.25;;;9.60;94.10;;;;;;5046393;28;20025;-60
2021/11/22 00:40:29;;;;;;;11.50;9.60;;;9.50;94.10;;;;;;5046901;28;20072;-59
2021/11/22 00:42:56;;;;;;;11.18;8.50;;;9.60;93.90;;;;;;5050547;28;20060;-60
2021/11/22 00:45:22;;;;;;;14.10;9.40;;;9.60;94.30;;;;;;5051584;28;20037;-60
2021/11/22 00:47:48;;;;;;;19.05;10.35;;;9.60;94.50;;;;;;5050665;28;20025;-60
2021/11/22 00:50:14;;;;;;;17.52;11.63;;;9.70;94.50;;;;;;5040340;28;20057;-59
2021/11/22 00:52:41;;;;;;;16.98;11.77;;;9.70;94.30;;;;;;5033182;28;20040;-60
2021/11/22 00:55:08;;;;;;;18.15;12.30;;;9.70;94.30;;;;;;5049780;28;20389;-58
2021/11/22 00:57:33;;;;;;;20.58;12.90;;;9.60;94.10;;;;;;5041305;28;20018;-60
2021/11/22 00:59:59;;;;;;;21.23;13.43;;;9.70;94.20;;;;;;5043536;28;20026;-59
2021/11/22 01:02:25;;;;;;;21.83;13.15;;;9.70;94.30;;;;;;5038630;28;20021;-60
2021/11/22 01:04:51;;;;;;;21.33;13.65;;;9.80;94.00;;;;;;5043936;28;20052;-60
2021/11/22 01:07:17;;;;;;;19.77;14.02;;;9.70;94.80;;;;;;5036989;28;20491;-59
2021/11/22 01:09:43;;;;;;;21.25;13.80;;;9.70;95.90;;;;;;5052023;28;20029;-59
2021/11/22 01:12:09;;;;;;;23.90;15.45;;;9.70;95.70;;;;;;5055303;28;20032;-59
2021/11/22 01:14:36;;;;;;;25.92;15.90;;;9.60;95.90;;;;;;5052647;28;20021;-59
2021/11/22 01:17:02;;;;;;;25.90;15.77;;;9.60;96.10;;;;;;5052345;28;20452;-60
2021/11/22 01:19:28;;;;;;;27.08;16.80;;;9.50;96.60;;;;;;5048716;28;20029;-59
2021/11/22 01:21:53;;;;;;;28.75;17.30;;;9.60;97.00;;;;;;5052953;28;20040;-58
2021/11/22 01:24:19;;;;;;;26.15;17.05;;;9.60;96.90;;;;;;5052286;28;20508;-60
2021/11/22 01:26:45;;;;;;;31.30;17.55;;;9.60;97.20;;;;;;5046783;28;20033;-60
2021/11/22 01:29:10;;;;;;;28.65;17.77;;;9.60;97.50;;;;;;5037422;28;20109;-59
2021/11/22 01:31:37;;;;;;;26.92;17.63;;;9.50;97.50;;;;;;5053325;28;20075;-59
2021/11/22 01:34:03;;;;;;;30.70;18.70;;;9.60;97.80;;;;;;5069339;28;20451;-57
2021/11/22 01:36:29;;;;;;;29.17;18.77;;;9.60;98.00;;;;;;5052472;28;20419;-59
2021/11/22 01:38:55;;;;;;;28.58;17.95;;;9.60;97.50;;;;;;5053677;28;20486;-59
2021/11/22 01:41:21;;;;;;;33.30;19.40;;;9.60;97.30;;;;;;5036277;28;20483;-59
2021/11/22 01:43:47;;;;;;;29.60;18.67;;;9.60;96.70;;;;;;5046607;28;20028;-57
2021/11/22 01:46:18;;;;;;;27.20;18.08;;;9.50;96.10;;;;;;5053483;28;20048;-58
2021/11/22 01:48:45;;;;;;;27.25;16.67;;;9.60;96.40;;;;;;5052217;28;20360;-59
2021/11/22 01:51:11;;;;;;;30.33;18.58;;;9.60;95.50;;;;;;5054344;28;20033;-57
2021/11/22 01:53:37;;;;;;;32.72;17.30;;;9.70;95.90;;;;;;5054915;28;20029;-57
2021/11/22 01:56:03;;;;;;;30.92;17.88;;;9.50;95.60;;;;;;5051549;28;20031;-58
2021/11/22 01:58:29;;;;;;;25.58;15.98;;;9.60;95.90;;;;;;5041997;28;20054;-58
2021/11/22 02:00:56;;;;;;;28.60;16.67;;;9.70;95.70;;;;;;5043587;28;20490;-58
2021/11/22 02:03:22;;;;;;;27.90;16.35;;;9.60;95.30;;;;;;5042119;28;20383;-57
2021/11/22 02:05:51;;;;;;;29.37;17.07;;;9.60;95.30;;;;;;5046911;28;20040;-58
2021/11/22 02:08:18;;;;;;;26.52;16.90;;;9.60;95.50;;;;;;5053747;28;20082;-59
2021/11/22 02:10:44;;;;;;;28.02;17.38;;;9.70;95.20;;;;;;5042986;28;20076;-58
2021/11/22 02:13:10;;;;;;;27.42;17.27;;;9.80;95.60;;;;;;5050208;28;20029;-57
2021/11/22 02:15:36;;;;;;;29.17;17.08;;;9.70;95.40;;;;;;5042453;28;20506;-58
2021/11/22 02:18:03;;;;;;;29.45;18.00;;;9.70;95.80;;;;;;5053794;28;20040;-58
2021/11/22 02:20:31;;;;;;;27.60;16.65;;;9.80;95.60;;;;;;5053761;28;20119;-57
2021/11/22 02:22:59;;;;;;;30.85;18.80;;;9.80;95.70;;;;;;5053094;28;20033;-57
2021/11/22 02:25:53;;;;;;;38.28;20.13;;;9.80;95.70;;;;;;5051070;28;20091;-57
2021/11/22 02:28:19;;;;;;;34.80;19.97;;;9.80;95.30;;;;;;5042966;28;20056;-58
2021/11/22 02:30:47;;;;;;;38.13;22.53;;;9.70;95.10;;;;;;5039841;28;20060;-59
2021/11/22 02:33:19;;;;;;;38.25;22.30;;;9.80;95.40;;;;;;5036381;28;20053;-58
2021/11/22 02:35:52;;;;;;;43.83;23.90;;;9.60;95.50;;;;;;5044186;28;20029;-58
2021/11/22 02:38:22;;;;;;;41.65;23.00;;;9.50;94.90;;;;;;5047842;28;20103;-58
2021/11/22 02:40:48;;;;;;;43.03;24.95;;;9.50;95.70;;;;;;5045484;28;20478;-60
2021/11/22 02:43:16;;;;;;;38.57;23.53;;;9.60;95.80;;;;;;5053596;28;20037;-58
2021/11/22 02:45:42;;;;;;;42.42;24.25;;;9.70;95.60;;;;;;5053136;28;20029;-58
2021/11/22 02:48:08;;;;;;;41.05;24.08;;;9.60;95.10;;;;;;5048121;28;20029;-59
2021/11/22 02:50:34;;;;;;;45.65;27.48;;;9.70;95.60;;;;;;5043750;28;20462;-58
2021/11/22 02:53:00;;;;;;;49.25;27.25;;;9.80;95.40;;;;;;5052406;28;20063;-57
2021/11/22 02:55:26;;;;;;;45.97;27.30;;;9.80;95.20;;;;;;5044366;28;20033;-58
2021/11/22 02:57:52;;;;;;;43.35;25.65;;;9.80;95.20;;;;;;5052664;28;20028;-59
2021/11/22 03:00:24;;;;;;;45.90;25.92;;;9.60;94.70;;;;;;5052577;28;20055;-58
2021/11/22 03:02:51;;;;;;;49.22;27.98;;;9.50;95.50;;;;;;5047902;28;20104;-58
2021/11/22 03:05:17;;;;;;;47.88;26.15;;;9.50;95.90;;;;;;5039331;28;20544;-58
2021/11/22 03:07:43;;;;;;;46.75;26.20;;;9.50;95.20;;;;;;5051064;28;20036;-59
2021/11/22 03:10:12;;;;;;;46.03;27.15;;;9.50;95.70;;;;;;5050925;28;20041;-59
2021/11/22 03:12:38;;;;;;;51.58;28.67;;;9.50;95.70;;;;;;5044886;28;20111;-59
2021/11/22 03:15:10;;;;;;;49.47;27.45;;;9.60;96.00;;;;;;5041877;28;20187;-59
2021/11/22 03:17:36;;;;;;;53.55;29.42;;;9.60;95.40;;;;;;5044866;28;20022;-59
2021/11/22 03:20:02;;;;;;;48.30;27.90;;;9.50;95.40;;;;;;5048131;28;20028;-58
2021/11/22 03:22:28;;;;;;;54.55;28.38;;;9.50;95.30;;;;;;5052864;28;20099;-58
2021/11/22 03:24:53;;;;;;;52.73;28.33;;;9.60;95.40;;;;;;5041011;28;20167;-58
2021/11/22 03:27:19;;;;;;;52.47;27.30;;;9.50;94.90;;;;;;5047974;28;20057;-60
2021/11/22 03:29:45;;;;;;;50.22;26.48;;;9.50;94.70;;;;;;5049417;28;20119;-59
2021/11/22 03:32:10;;;;;;;48.88;26.48;;;9.40;95.30;;;;;;5049163;28;20090;-58
2021/11/22 03:34:36;;;;;;;53.05;27.70;;;9.60;95.60;;;;;;5048571;28;20537;-59
2021/11/22 03:37:04;;;;;;;46.87;25.07;;;9.60;95.30;;;;;;5048000;28;20112;-60
2021/11/22 03:39:31;;;;;;;51.60;26.83;;;9.60;95.20;;;;;;5052517;28;20033;-59
2021/11/22 03:41:59;;;;;;;46.70;25.58;;;9.70;95.30;;;;;;5050952;28;20494;-59
2021/11/22 03:44:25;;;;;;;44.80;24.23;;;9.60;95.10;;;;;;5049147;28;20086;-60
2021/11/22 03:46:52;;;;;;;44.47;23.48;;;9.60;94.80;;;;;;5049760;28;20487;-59
2021/11/22 03:49:19;;;;;;;45.20;24.90;;;9.60;94.90;;;;;;5050110;28;20037;-59
2021/11/22 03:51:45;;;;;;;47.13;26.85;;;9.60;94.80;;;;;;5042932;28;20033;-57
2021/11/22 03:54:11;;;;;;;43.72;23.58;;;9.60;94.70;;;;;;5050436;28;20087;-59
2021/11/22 03:56:40;;;;;;;41.30;22.88;;;9.60;94.80;;;;;;5051349;28;20025;-58
2021/11/22 03:59:08;;;;;;;44.67;23.63;;;9.50;94.80;;;;;;5050586;28;20037;-59
2021/11/22 04:01:34;;;;;;;44.92;24.17;;;9.60;95.30;;;;;;5040822;28;20021;-59
2021/11/22 04:04:00;;;;;;;43.80;23.63;;;9.60;95.00;;;;;;5050432;28;20060;-59
2021/11/22 04:06:26;;;;;;;44.20;23.92;;;9.60;95.00;;;;;;5049108;28;20033;-59
2021/11/22 04:08:51;;;;;;;40.38;23.30;;;9.70;95.10;;;;;;5039360;28;20029;-58
2021/11/22 04:11:17;;;;;;;39.75;23.27;;;9.70;94.80;;;;;;5049680;28;20099;-56
2021/11/22 04:13:43;;;;;;;43.10;23.08;;;9.70;95.00;;;;;;5039037;28;20029;-59
2021/11/22 04:16:09;;;;;;;36.45;21.65;;;9.80;95.00;;;;;;5044564;28;20108;-57
2021/11/22 04:18:35;;;;;;;36.00;21.17;;;9.70;94.70;;;;;;5049456;28;20025;-58
2021/11/22 04:21:01;;;;;;;34.45;20.92;;;9.80;94.60;;;;;;5044395;28;20029;-58
2021/11/22 04:23:27;;;;;;;38.50;19.90;;;9.80;94.80;;;;;;5032630;28;20044;-59
2021/11/22 04:25:52;;;;;;;32.85;19.30;;;9.70;94.60;;;;;;5048503;28;20099;-60
2021/11/22 04:28:18;;;;;;;30.25;18.70;;;9.70;94.50;;;;;;5050068;28;20505;-59
2021/11/22 04:30:44;;;;;;;34.22;19.20;;;9.60;94.40;;;;;;5063715;28;20033;-58
2021/11/22 04:33:10;;;;;;;29.40;17.42;;;9.60;94.20;;;;;;5032089;28;20470;-57
2021/11/22 04:35:36;;;;;;;30.55;17.58;;;9.60;94.50;;;;;;5035429;28;20517;-57
2021/11/22 04:38:02;;;;;;;31.33;18.23;;;9.70;93.50;;;;;;5050448;28;20017;-56
2021/11/22 04:40:28;;;;;;;31.70;18.77;;;9.60;94.30;;;;;;5050170;28;20389;-55
2021/11/22 04:42:54;;;;;;;32.50;18.70;;;9.60;94.00;;;;;;5035217;28;20130;-57
2021/11/22 04:45:22;;;;;;;28.30;17.33;;;9.60;94.90;;;;;;5047489;28;20112;-56
2021/11/22 04:47:50;;;;;;;31.77;17.73;;;9.70;94.30;;;;;;5049038;28;20021;-57
2021/11/22 04:50:16;;;;;;;30.30;17.67;;;9.70;94.50;;;;;;5053050;28;20037;-57
2021/11/22 04:52:44;;;;;;;32.42;18.00;;;9.70;94.40;;;;;;5055508;28;20435;-58
2021/11/22 04:55:11;;;;;;;32.28;18.50;;;9.70;94.40;;;;;;5052287;28;20112;-57
2021/11/22 04:57:37;;;;;;;30.40;18.55;;;9.70;94.60;;;;;;5062109;28;20091;-58
2021/11/22 05:00:05;;;;;;;35.13;20.00;;;9.70;94.60;;;;;;5048325;28;20067;-58
2021/11/22 05:02:30;;;;;;;34.53;19.58;;;9.70;94.50;;;;;;5054654;28;20032;-56
2021/11/22 05:04:56;;;;;;;34.75;19.13;;;9.70;94.60;;;;;;5054529;28;20037;-57
2021/11/22 05:07:21;;;;;;;30.38;18.38;;;9.80;94.80;;;;;;5051773;28;20494;-54
2021/11/22 05:09:47;;;;;;;31.05;18.15;;;9.80;94.30;;;;;;5046552;28;20072;-56
2021/11/22 05:12:15;;;;;;;31.85;19.17;;;9.90;94.60;;;;;;5049601;28;20040;-56
2021/11/22 05:14:40;;;;;;;31.00;16.70;;;9.80;94.50;;;;;;5046050;28;20040;-58
2021/11/22 05:17:06;;;;;;;31.35;16.45;;;9.80;94.50;;;;;;5047667;28;20034;-57
2021/11/22 05:19:32;;;;;;;23.70;14.68;;;9.80;94.40;;;;;;5043319;28;20447;-58
2021/11/22 05:22:00;;;;;;;25.42;15.48;;;9.70;94.40;;;;;;5046743;28;20032;-58
2021/11/22 05:24:27;;;;;;;27.85;15.48;;;9.70;94.20;;;;;;5053493;28;20036;-57
2021/11/22 05:26:52;;;;;;;27.35;16.63;;;9.70;94.80;;;;;;5043229;28;20033;-57
2021/11/22 05:29:18;;;;;;;22.77;13.05;;;9.70;94.80;;;;;;5044118;28;20024;-57
2021/11/22 05:31:44;;;;;;;21.73;13.48;;;9.70;94.40;;;;;;5051726;28;20071;-58
2021/11/22 05:34:10;;;;;;;23.50;14.10;;;9.70;93.20;;;;;;5039689;28;20037;-56
2021/11/22 05:36:36;;;;;;;21.52;12.90;;;9.60;94.70;;;;;;5036464;28;20079;-58
2021/11/22 05:39:06;;;;;;;24.65;14.68;;;9.60;94.30;;;;;;5052587;28;20029;-57
2021/11/22 05:41:32;;;;;;;25.05;14.57;;;9.70;94.10;;;;;;5055141;28;20021;-56
2021/11/22 05:43:58;;;;;;;23.95;14.13;;;9.60;94.90;;;;;;5054188;28;20387;-55
2021/11/22 05:46:23;;;;;;;24.13;14.68;;;9.60;95.20;;;;;;5050027;28;20029;-56
2021/11/22 05:48:49;;;;;;;22.15;12.93;;;9.60;95.10;;;;;;5044453;28;20025;-58
2021/11/22 05:51:15;;;;;;;21.73;12.18;;;9.70;95.30;;;;;;5038617;28;20084;-57
2021/11/22 05:53:43;;;;;;;23.45;13.52;;;9.70;95.30;;;;;;5050404;28;20028;-59
2021/11/22 05:56:08;;;;;;;19.48;12.50;;;9.70;95.10;;;;;;5039607;28;20065;-58
2021/11/22 05:58:35;;;;;;;21.50;14.07;;;9.70;95.00;;;;;;5043115;28;20137;-57
2021/11/22 06:01:03;;;;;;;19.58;12.52;;;9.70;95.70;;;;;;5045303;28;20484;-56
2021/11/22 06:03:30;;;;;;;24.15;14.43;;;9.80;96.10;;;;;;5042661;28;20451;-56
2021/11/22 06:05:56;;;;;;;23.08;13.93;;;9.70;96.90;;;;;;5055385;28;20037;-57
2021/11/22 06:08:22;;;;;;;26.10;14.32;;;9.80;96.60;;;;;;5052803;28;20021;-59
2021/11/22 06:10:49;;;;;;;25.93;14.43;;;9.70;96.40;;;;;;5053540;28;20045;-56
2021/11/22 06:13:19;;;;;;;27.75;15.35;;;9.70;97.20;;;;;;5048710;28;20513;-58
2021/11/22 06:15:46;;;;;;;22.60;15.45;;;9.70;97.10;;;;;;5043252;28;20084;-56
2021/11/22 06:18:12;;;;;;;23.35;15.00;;;9.70;97.00;;;;;;5051716;28;20109;-56
2021/11/22 06:20:38;;;;;;;29.70;16.45;;;9.70;97.40;;;;;;5051328;28;20040;-56
2021/11/22 06:23:05;;;;;;;24.70;14.93;;;9.80;96.70;;;;;;5049140;28;20067;-57
2021/11/22 06:25:31;;;;;;;25.33;15.73;;;9.80;96.70;;;;;;5042412;28;20028;-56
2021/11/22 06:27:56;;;;;;;28.67;16.50;;;9.80;96.90;;;;;;5049015;28;20055;-59
2021/11/22 06:30:22;;;;;;;32.60;17.52;;;9.90;97.10;;;;;;5040093;28;20077;-58
2021/11/22 06:32:51;;;;;;;28.40;17.05;;;9.90;96.80;;;;;;5047160;28;20060;-58
2021/11/22 06:35:18;;;;;;;31.05;17.95;;;9.90;97.00;;;;;;5051846;28;20041;-57
2021/11/22 06:37:44;;;;;;;30.02;17.25;;;9.90;96.90;;;;;;5044504;28;20018;-58
2021/11/22 06:40:10;;;;;;;29.73;16.55;;;9.90;97.30;;;;;;5049946;28;20043;-58
2021/11/22 06:42:37;;;;;;;33.20;19.27;;;9.90;98.90;;;;;;5051023;28;20433;-58
2021/11/22 06:45:07;;;;;;;31.98;19.02;;;9.80;99.80;;;;;;5035933;28;20079;-58
2021/11/22 06:47:34;;;;;;;34.15;19.40;;;9.80;99.90;;;;;;5061125;28;20395;-57
2021/11/22 06:50:00;;;;;;;35.75;20.45;;;9.80;99.90;;;;;;5043045;28;20033;-57
2021/11/22 06:52:26;;;;;;;33.88;19.52;;;9.70;99.90;;;;;;5038730;28;20036;-57
2021/11/22 06:54:53;;;;;;;32.35;19.50;;;9.80;99.90;;;;;;5050148;28;20029;-55
2021/11/22 06:57:19;;;;;;;32.55;20.02;;;9.80;99.90;;;;;;5047714;28;20424;-59
2021/11/22 06:59:45;;;;;;;34.28;19.88;;;9.80;99.90;;;;;;5041493;28;20459;-58
2021/11/22 07:02:16;;;;;;;33.17;20.80;;;9.80;99.90;;;;;;5048484;28;20033;-58
2021/11/22 07:04:45;;;;;;;29.63;19.17;;;9.80;99.90;;;;;;5039967;28;20029;-60
2021/11/22 07:07:13;;;;;;;30.58;20.27;;;9.90;99.90;;;;;;5057056;28;20082;-58
2021/11/22 07:09:38;;;;;;;32.38;19.70;;;9.90;99.90;;;;;;5042796;28;20025;-59
2021/11/22 07:12:05;;;;;;;30.80;19.45;;;10.00;99.90;;;;;;5045833;28;20048;-58
2021/11/22 07:14:32;;;;;;;32.22;20.58;;;10.00;99.90;;;;;;5040428;28;20585;-58
2021/11/22 07:16:57;;;;;;;31.48;19.23;;;10.00;99.90;;;;;;5046650;28;20029;-57
2021/11/22 07:19:23;;;;;;;35.20;20.98;;;9.90;99.90;;;;;;5040152;28;20076;-55
2021/11/22 07:21:49;;;;;;;36.50;21.90;;;10.00;99.90;;;;;;5041184;28;20108;-58
2021/11/22 07:24:14;;;;;;;35.22;21.48;;;10.10;99.90;;;;;;5044981;28;20048;-58
2021/11/22 07:26:40;;;;;;;33.53;22.30;;;10.10;99.90;;;;;;5042787;28;20032;-57
2021/11/22 07:29:08;;;;;;;41.60;25.63;;;10.00;99.90;;;;;;5044329;28;20021;-56
2021/11/22 07:31:33;;;;;;;35.53;20.73;;;10.00;99.90;;;;;;5044653;28;20041;-57
2021/11/22 07:33:59;;;;;;;36.47;21.52;;;10.00;99.90;;;;;;5049107;28;20047;-58
2021/11/22 07:36:25;;;;;;;37.45;22.75;;;10.10;99.90;;;;;;5052432;28;20029;-58
2021/11/22 07:38:51;;;;;;;38.53;22.90;;;10.10;99.90;;;;;;5050306;28;20439;-58
2021/11/22 07:41:17;;;;;;;36.08;21.92;;;10.00;99.90;;;;;;5037352;28;20041;-59
2021/11/22 07:43:43;;;;;;;35.92;22.17;;;10.10;99.90;;;;;;5048070;28;20029;-57
2021/11/22 07:46:09;;;;;;;34.08;21.02;;;10.20;99.90;;;;;;5040075;28;20098;-59
2021/11/22 07:48:35;;;;;;;33.92;21.13;;;10.10;99.90;;;;;;5038355;28;20143;-58
2021/11/22 07:51:03;;;;;;;36.50;21.45;;;10.20;99.60;;;;;;5037732;28;20041;-59
2021/11/22 07:53:29;;;;;;;32.30;20.33;;;10.20;99.20;;;;;;5041879;28;20029;-55
2021/11/22 07:55:54;;;;;;;34.15;19.67;;;10.30;99.30;;;;;;5042629;28;20040;-58
2021/11/22 07:58:20;;;;;;;30.27;19.45;;;10.20;99.30;;;;;;5044582;28;20021;-58
2021/11/22 08:00:46;;;;;;;25.13;16.80;;;10.30;99.00;;;;;;5045660;28;20040;-59
2021/11/22 08:03:12;;;;;;;33.22;19.83;;;10.30;98.30;;;;;;5048300;28;20029;-59
2021/11/22 08:05:38;;;;;;;34.08;20.02;;;10.20;97.70;;;;;;5048445;28;20029;-59
2021/11/22 08:08:04;;;;;;;32.17;19.00;;;10.20;96.90;;;;;;5047890;28;20033;-58
2021/11/22 08:10:33;;;;;;;37.13;20.73;;;10.10;97.50;;;;;;5045668;28;20051;-58
2021/11/22 08:13:02;;;;;;;36.45;22.45;;;10.20;97.40;;;;;;5046445;28;20017;-59
2021/11/22 08:15:29;;;;;;;34.30;21.80;;;10.20;97.10;;;;;;5046947;28;20045;-55
2021/11/22 08:17:58;;;;;;;37.13;23.08;;;10.10;96.40;;;;;;5047479;28;20025;-58
2021/11/22 08:20:23;;;;;;;28.05;20.20;;;10.00;98.10;;;;;;5047185;28;20041;-57
2021/11/22 08:22:50;;;;;;;30.90;19.77;;;10.00;98.80;;;;;;5048288;28;20025;-55
2021/11/22 08:25:18;;;;;;;29.90;20.58;;;10.00;98.20;;;;;;5042200;28;20467;-57
2021/11/22 08:27:44;;;;;;;29.88;20.05;;;10.10;98.70;;;;;;5043608;28;20037;-57
2021/11/22 08:30:13;;;;;;;35.42;19.75;;;9.90;97.60;;;;;;5046892;28;20036;-55
2021/11/22 08:32:40;;;;;;;30.42;20.05;;;10.10;98.90;;;;;;5045664;28;20049;-58
2021/11/22 08:35:07;;;;;;;30.92;19.85;;;10.10;99.20;;;;;;5045239;28;20739;-57
2021/11/22 08:37:33;;;;;;;31.63;19.95;;;10.00;98.70;;;;;;5044262;28;20440;-57
2021/11/22 08:39:59;;;;;;;30.42;19.90;;;10.00;99.40;;;;;;5045584;28;20045;-60
2021/11/22 08:42:25;;;;;;;26.05;18.10;;;10.10;99.80;;;;;;5049606;28;20060;-59
2021/11/22 08:44:53;;;;;;;30.50;18.88;;;9.90;98.10;;;;;;5040650;28;20021;-59
2021/11/22 08:47:19;;;;;;;31.67;19.45;;;9.90;99.90;;;;;;5046416;28;20524;-57
2021/11/22 08:49:45;;;;;;;28.95;19.25;;;9.90;99.90;;;;;;5045383;28;20022;-59
2021/11/22 08:52:12;;;;;;;30.60;18.58;;;9.90;99.90;;;;;;5048758;28;20500;-59
2021/11/22 08:54:38;;;;;;;32.38;20.17;;;10.00;99.90;;;;;;5043962;28;20382;-56
2021/11/22 08:57:07;;;;;;;35.33;19.17;;;10.00;99.90;;;;;;5049781;28;20033;-59
2021/11/22 08:59:33;;;;;;;25.70;16.58;;;10.00;99.90;;;;;;5049342;28;20395;-58
2021/11/22 09:01:58;;;;;;;30.55;19.08;;;10.10;99.90;;;;;;5046231;28;20024;-58
2021/11/22 09:04:25;;;;;;;31.08;18.85;;;10.20;99.90;;;;;;5046668;28;20029;-59
2021/11/22 09:06:50;;;;;;;30.33;17.95;;;10.30;99.90;;;;;;5049881;28;20017;-59
2021/11/22 09:09:18;;;;;;;29.88;19.20;;;10.20;99.90;;;;;;5049750;28;20029;-55
2021/11/22 09:11:45;;;;;;;32.28;19.27;;;10.30;99.90;;;;;;5051359;28;20171;-59
2021/11/22 09:14:12;;;;;;;32.28;18.55;;;10.30;99.90;;;;;;5043109;28;20030;-58
2021/11/22 09:16:44;;;;;;;33.75;18.70;;;10.30;99.90;;;;;;5046155;28;20104;-60
2021/11/22 09:19:10;;;;;;;30.80;20.27;;;10.30;99.90;;;;;;5034725;28;20503;-58
2021/11/22 09:21:36;;;;;;;32.60;21.95;;;10.30;99.90;;;;;;5032335;28;20036;-58
2021/11/22 09:24:05;;;;;;;34.92;21.20;;;10.30;99.90;;;;;;5046726;28;20112;-58
2021/11/22 09:26:31;;;;;;;34.83;21.40;;;10.30;99.90;;;;;;5051916;28;20098;-59
2021/11/22 09:28:58;;;;;;;35.17;20.52;;;10.30;99.90;;;;;;5048147;28;20340;-57
2021/11/22 09:31:25;;;;;;;33.08;19.13;;;10.40;99.90;;;;;;5035521;28;20045;-59
2021/11/22 09:33:53;;;;;;;32.83;20.27;;;10.40;99.90;;;;;;5047655;28;20141;-58
2021/11/22 09:36:18;;;;;;;29.38;19.83;;;10.40;99.90;;;;;;5050075;28;20067;-59
2021/11/22 09:38:45;;;;;;;37.58;20.65;;;10.40;99.90;;;;;;5051556;28;20037;-57
2021/11/22 09:41:11;;;;;;;31.17;20.75;;;10.30;99.90;;;;;;5049589;28;20025;-59
2021/11/22 09:43:37;;;;;;;31.33;22.00;;;10.20;99.90;;;;;;5052444;28;20037;-58
2021/11/22 09:46:04;;;;;;;35.10;22.35;;;10.20;99.90;;;;;;5054150;28;20467;-58
2021/11/22 09:48:30;;;;;;;34.33;20.65;;;10.20;99.90;;;;;;5049016;28;20025;-59
2021/11/22 09:50:55;;;;;;;33.92;20.45;;;10.10;99.90;;;;;;5054731;28;20028;-57
2021/11/22 09:53:21;;;;;;;32.45;21.85;;;10.10;99.90;;;;;;5053510;28;20020;-58
2021/11/22 09:55:48;;;;;;;30.58;19.40;;;10.20;99.90;;;;;;5054331;28;20087;-58
2021/11/22 09:58:13;;;;;;;29.90;19.55;;;10.20;99.90;;;;;;5043304;28;20083;-59
2021/11/22 10:00:44;;;;;;;36.60;21.25;;;10.30;99.90;;;;;;5035116;28;20029;-59
2021/11/22 10:03:21;;;;;;;28.80;18.58;;;10.30;99.90;;;;;;5039593;28;20999;-59
2021/11/22 10:05:53;;;;;;;29.73;19.35;;;10.40;99.90;;;;;;5054910;28;20548;-58
2021/11/22 10:08:22;;;;;;;31.88;20.02;;;10.40;99.90;;;;;;5052765;28;20071;-59
2021/11/22 10:10:53;;;;;;;28.90;18.38;;;10.50;99.90;;;;;;5045674;28;20037;-59
2021/11/22 10:13:38;;;;;;;28.38;18.42;;;10.50;99.90;;;;;;5037895;28;20037;-59
2021/11/22 10:16:15;;;;;;;29.58;16.80;;;10.50;99.90;;;;;;5035140;28;20029;-57
2021/11/22 10:18:45;;;;;;;21.63;15.57;;;10.50;99.90;;;;;;5048787;28;20090;-58
2021/11/22 10:21:15;;;;;;;29.33;16.48;;;10.60;99.90;;;;;;5065461;28;20051;-59
2021/11/22 10:23:42;;;;;;;25.58;18.05;;;10.60;99.90;;;;;;5053126;28;20112;-59
2021/11/22 10:26:10;;;;;;;27.00;19.10;;;10.60;99.90;;;;;;5051831;28;20044;-58
2021/11/22 10:28:45;;;;;;;32.65;20.08;;;10.60;99.90;;;;;;5046705;28;20033;-59
2021/11/22 10:31:26;;;;;;;30.17;20.00;;;10.80;99.90;;;;;;5045465;28;20037;-59
2021/11/22 10:33:54;;;;;;;26.45;19.65;;;10.80;99.90;;;;;;5046077;28;20045;-60
2021/11/22 10:36:23;;;;;;;30.75;21.00;;;10.70;99.90;;;;;;5043928;28;20137;-59
2021/11/22 10:38:57;;;;;;;25.10;18.65;;;10.70;99.90;;;;;;5051382;28;20029;-58
2021/11/22 10:41:28;;;;;;;22.65;17.55;;;10.70;99.90;;;;;;5048670;28;20071;-60
2021/11/22 10:44:05;;;;;;;24.02;17.05;;;10.80;99.90;;;;;;5046636;28;20088;-59
2021/11/22 10:46:38;;;;;;;23.30;17.08;;;10.60;99.90;;;;;;5045679;28;20079;-59
2021/11/22 10:49:13;;;;;;;25.92;17.45;;;10.70;99.90;;;;;;5047327;28;20036;-58
2021/11/22 10:51:43;;;;;;;;;;;10.80;99.90;;;;;;5044815;28;20470;-59
2021/11/22 10:54:10;;;;;;;25.80;17.67;;;10.90;99.90;;;;;;5044397;28;19913;-59
2021/11/22 10:56:39;;;;;;;23.75;17.13;;;10.90;99.90;;;;;;5047799;28;20028;-58
2021/11/22 10:59:09;;;;;;;20.83;16.25;;;11.00;99.90;;;;;;5057817;28;20745;-58
2021/11/22 11:01:42;;;;;;;22.63;16.23;;;11.20;99.90;;;;;;5043914;28;20036;-59
2021/11/22 11:04:14;;;;;;;27.55;18.25;;;11.10;99.90;;;;;;5045189;28;20036;-58
2021/11/22 11:07:00;;;;;;;25.27;17.10;;;11.20;99.90;;;;;;5047176;28;20032;-60
2021/11/22 11:09:35;;;;;;;25.73;18.40;;;11.30;99.90;;;;;;5045304;28;20529;-59
2021/11/22 11:12:25;;;;;;;18.75;16.00;;;11.30;99.90;;;;;;5045551;28;20501;-59
2021/11/22 11:14:56;;;;;;;20.73;16.05;;;11.30;99.90;;;;;;5043877;28;20022;-58
2021/11/22 11:17:33;;;;;;;26.67;19.20;;;11.50;99.90;;;;;;5044180;28;20034;-60
2021/11/22 11:20:08;;;;;;;25.33;18.27;;;11.50;99.90;;;;;;5064292;28;20075;-59
2021/11/22 11:22:34;;;;;;;25.08;17.48;;;11.50;99.90;;;;;;5047462;28;20079;-58
2021/11/22 11:25:00;;;;;;;19.48;16.20;;;11.60;99.90;;;;;;5043355;28;20021;-59
2021/11/22 11:27:27;;;;;;;21.73;17.15;;;11.60;99.90;;;;;;5043717;28;20552;-56
2021/11/22 11:29:55;;;;;;;20.50;15.77;;;;;;;;;;5057043;28;20055;-58
2021/11/22 11:32:20;;;;;;;49.17;30.85;;;11.30;98.40;;;;;;5045062;28;20084;-59
2021/11/22 11:34:51;;;;;;;49.47;29.85;;;11.40;99.90;;;;;;5045596;28;20479;-59
2021/11/22 11:37:44;;;;;;;34.08;24.45;;;11.50;99.20;;;;;;5044213;28;20495;-56
2021/11/22 11:40:56;;;;;;;31.48;19.02;;;11.60;98.80;;;;;;5043419;28;20105;-57
2021/11/22 11:43:37;;;;;;;25.95;17.33;;;11.70;98.80;;;;;;4987832;28;20038;-58
2021/11/22 11:46:11;;;;;;;23.55;18.50;;;11.60;96.40;;;;;;5044396;28;20089;-59
2021/11/22 11:49:07;;;;;;;23.50;17.73;;;11.60;98.60;;;;;;5044720;28;20399;-57
2021/11/22 11:51:37;;;;;;;18.45;15.10;;;11.60;96.50;;;;;;5037310;28;20076;-58
2021/11/22 11:54:05;;;;;;;19.10;14.25;;;11.60;98.00;;;;;;5044803;28;20022;-58
2021/11/22 11:56:33;;;;;;;19.00;14.55;;;11.50;97.50;;;;;;5046561;28;20041;-59
2021/11/22 11:59:13;;;;;;;17.17;14.10;;;11.60;98.20;;;;;;5045865;28;20532;-60
2021/11/22 12:02:17;;;;;;;18.60;14.60;;;11.70;97.40;;;;;;5046579;28;20024;-59
2021/11/22 12:04:47;;;;;;;23.52;17.10;;;11.60;97.90;;;;;;5045748;28;20452;-60
2021/11/22 12:07:23;;;;;;;18.50;15.75;;;11.70;98.60;;;;;;5042333;28;20029;-60
2021/11/22 12:10:03;;;;;;;18.83;14.60;;;11.70;98.90;;;;;;5043550;28;20029;-57
2021/11/22 12:12:46;;;;;;;19.50;13.85;;;11.70;97.70;;;;;;5046048;28;20033;-59
2021/11/22 12:15:27;;;;;;;18.08;13.90;;;11.60;97.70;;;;;;5048799;28;20033;-59
2021/11/22 12:17:55;;;;;;;16.15;13.27;;;11.80;98.30;;;;;;5040846;28;20026;-59
2021/11/22 12:20:22;;;;;;;18.25;14.88;;;11.80;98.40;;;;;;5052720;28;20029;-59
2021/11/22 12:22:55;;;;;;;17.00;14.15;;;11.80;97.80;;;;;;5039274;28;20099;-59
2021/11/22 12:25:39;;;;;;;15.02;9.82;;;11.90;97.90;;;;;;5032860;28;20025;-60
2021/11/22 12:28:10;;;;;;;9.27;8.05;;;11.70;96.70;;;;;;5046261;28;20120;-59
2021/11/22 12:30:49;;;;;;;13.63;10.88;;;11.60;95.50;;;;;;5052508;28;20532;-59
2021/11/22 12:33:21;;;;;;;12.13;9.23;;;11.70;96.60;;;;;;5051368;28;20049;-59
2021/11/22 12:35:56;;;;;;;15.18;10.88;;;11.70;96.10;;;;;;5052765;28;20025;-59
2021/11/22 12:38:26;;;;;;;11.82;10.25;;;11.80;96.70;;;;;;5039598;28;20475;-58